createdAt,value
2022-07-28T00:00:41.979Z,17.77
2022-07-28T00:03:08.493Z,17.75
2022-07-28T00:05:35.045Z,17.72
2022-07-28T00:08:01.618Z,17.69
2022-07-28T00:10:28.195Z,17.67
2022-07-28T00:12:54.758Z,17.64
2022-07-28T00:15:21.191Z,17.63
2022-07-28T00:17:47.631Z,17.61
2022-07-28T00:20:14.221Z,17.60
2022-07-28T00:22:44.518Z,17.57
2022-07-28T00:25:11.556Z,17.57
2022-07-28T00:27:38.455Z,17.56
2022-07-28T00:30:06.657Z,17.53
2022-07-28T00:32:33.775Z,17.52
2022-07-28T00:35:00.552Z,17.51
2022-07-28T00:37:28.950Z,17.50
2022-07-28T00:39:56.014Z,17.45
2022-07-28T00:42:22.637Z,17.42
2022-07-28T00:44:49.169Z,17.38
2022-07-28T00:47:15.692Z,17.36
2022-07-28T00:49:42.281Z,17.34
2022-07-28T00:52:09.510Z,17.33
2022-07-28T00:54:36.763Z,17.29
2022-07-28T00:57:03.247Z,17.30
2022-07-28T00:59:30.768Z,17.28
2022-07-28T01:02:00.821Z,17.24
2022-07-28T01:04:27.514Z,17.21
2022-07-28T01:06:58.220Z,17.17
2022-07-28T01:09:42.393Z,17.13
2022-07-28T01:12:27.047Z,17.09
2022-07-28T01:15:03.795Z,17.02
2022-07-28T01:17:40.111Z,16.94
2022-07-28T01:20:16.150Z,16.88
2022-07-28T01:23:05.926Z,16.83
2022-07-28T01:26:03.312Z,16.77
2022-07-28T01:28:49.838Z,16.72
2022-07-28T01:31:20.222Z,16.69
2022-07-28T01:33:53.358Z,16.66
2022-07-28T01:36:30.879Z,16.62
2022-07-28T01:38:58.554Z,16.62
2022-07-28T01:41:27.769Z,16.58
2022-07-28T01:44:00.855Z,16.55
2022-07-28T01:46:27.661Z,16.53
2022-07-28T01:48:55.129Z,16.50
2022-07-28T01:51:23.760Z,16.49
2022-07-28T01:53:51.788Z,16.48
2022-07-28T01:56:19.436Z,16.44
2022-07-28T01:58:47.390Z,16.41
2022-07-28T02:01:14.908Z,16.38
2022-07-28T02:03:41.570Z,16.35
2022-07-28T02:06:08.802Z,16.34
2022-07-28T02:08:36.449Z,16.29
2022-07-28T02:11:21.649Z,16.25
2022-07-28T02:13:49.324Z,16.22
2022-07-28T02:16:17.394Z,16.21
2022-07-28T02:18:45.321Z,16.14
2022-07-28T02:21:11.964Z,16.10
2022-07-28T02:23:39.266Z,16.05
2022-07-28T02:26:09.349Z,16.00
2022-07-28T02:28:36.393Z,15.97
2022-07-28T02:31:09.607Z,15.94
2022-07-28T02:33:58.618Z,15.93
2022-07-28T02:36:38.054Z,15.92
2022-07-28T02:39:17.245Z,15.90
2022-07-28T02:41:44.252Z,15.89
2022-07-28T02:44:15.520Z,15.85
2022-07-28T02:46:44.828Z,15.79
2022-07-28T02:49:14.361Z,15.74
2022-07-28T02:51:42.517Z,15.68
2022-07-28T02:54:10.529Z,15.65
2022-07-28T02:56:37.467Z,15.62
2022-07-28T02:59:04.174Z,15.60
2022-07-28T03:01:30.967Z,15.58
2022-07-28T03:03:58.829Z,15.52
2022-07-28T03:06:28.566Z,15.50
2022-07-28T03:08:56.594Z,15.49
2022-07-28T03:11:23.072Z,15.46
2022-07-28T03:13:49.506Z,15.45
2022-07-28T03:16:16.031Z,15.43
2022-07-28T03:18:42.526Z,15.39
2022-07-28T03:21:08.982Z,15.35
2022-07-28T03:23:39.837Z,15.31
2022-07-28T03:26:12.311Z,15.28
2022-07-28T03:28:38.922Z,15.22
2022-07-28T03:31:09.082Z,15.20
2022-07-28T03:33:35.610Z,15.15
2022-07-28T03:36:07.218Z,15.13
2022-07-28T03:38:37.662Z,15.10
2022-07-28T03:41:04.975Z,15.07
2022-07-28T03:43:31.601Z,15.06
2022-07-28T03:45:58.076Z,15.05
2022-07-28T03:48:31.355Z,15.04
2022-07-28T03:50:58.697Z,15.03
2022-07-28T03:53:26.993Z,15.04
2022-07-28T03:55:53.885Z,15.03
2022-07-28T03:58:22.458Z,15.04
2022-07-28T04:00:53.238Z,15.02
2022-07-28T04:03:35.943Z,15.00
2022-07-28T04:06:06.909Z,15.00
2022-07-28T04:08:33.388Z,14.97
2022-07-28T04:10:59.842Z,14.95
2022-07-28T04:13:26.301Z,14.95
2022-07-28T04:15:52.739Z,14.97
2022-07-28T04:18:19.538Z,15.00
2022-07-28T04:20:45.996Z,15.04
2022-07-28T04:23:12.447Z,15.08
2022-07-28T04:25:38.979Z,15.13
2022-07-28T04:28:06.622Z,15.17
2022-07-28T04:30:33.140Z,15.23
2022-07-28T04:32:59.593Z,15.31
2022-07-28T04:35:27.261Z,15.39
2022-07-28T04:37:58.273Z,15.47
2022-07-28T04:40:25.677Z,15.55
2022-07-28T04:42:52.161Z,15.64
2022-07-28T04:45:18.765Z,15.72
2022-07-28T04:47:45.190Z,15.80
2022-07-28T04:50:15.145Z,15.87
2022-07-28T04:52:42.056Z,15.91
2022-07-28T04:55:08.792Z,15.97
2022-07-28T04:57:35.492Z,15.99
2022-07-28T05:00:05.035Z,16.03
2022-07-28T05:02:31.474Z,16.10
2022-07-28T05:04:57.937Z,16.05
2022-07-28T05:07:24.407Z,16.09
2022-07-28T05:09:50.847Z,16.11
2022-07-28T05:12:17.295Z,16.13
2022-07-28T05:14:43.762Z,16.15
2022-07-28T05:17:10.188Z,16.11
2022-07-28T05:19:36.824Z,16.09
2022-07-28T05:22:03.381Z,16.13
2022-07-28T05:24:29.814Z,16.14
2022-07-28T05:26:56.309Z,16.17
2022-07-28T05:29:22.877Z,16.18
2022-07-28T05:31:49.361Z,16.22
2022-07-28T05:34:16.151Z,16.28
2022-07-28T05:36:43.753Z,16.35
2022-07-28T05:39:10.194Z,16.38
2022-07-28T05:41:36.623Z,16.36
2022-07-28T05:44:03.088Z,16.38
2022-07-28T05:46:29.542Z,16.43
2022-07-28T05:48:56.073Z,16.40
2022-07-28T05:51:22.517Z,16.46
2022-07-28T05:53:49.109Z,16.45
2022-07-28T05:56:15.562Z,16.47
2022-07-28T05:58:42.010Z,16.45
2022-07-28T06:01:08.653Z,16.49
2022-07-28T06:03:41.425Z,16.54
2022-07-28T06:06:15.019Z,16.54
2022-07-28T06:08:44.072Z,16.61
2022-07-28T06:11:11.601Z,16.65
2022-07-28T06:13:39.430Z,16.66
2022-07-28T06:16:12.618Z,16.70
2022-07-28T06:18:39.711Z,16.70
2022-07-28T06:21:06.192Z,16.77
2022-07-28T06:23:32.645Z,16.83
2022-07-28T06:25:59.092Z,16.86
2022-07-28T06:28:25.533Z,16.94
2022-07-28T06:30:52.234Z,16.99
2022-07-28T06:33:18.755Z,17.01
2022-07-28T06:35:48.368Z,16.99
2022-07-28T06:38:19.508Z,17.02
2022-07-28T06:40:46.274Z,17.08
2022-07-28T06:43:14.438Z,17.14
2022-07-28T06:45:40.982Z,17.21
2022-07-28T06:48:08.137Z,17.18
2022-07-28T06:50:34.652Z,17.27
2022-07-28T06:53:01.692Z,17.33
2022-07-28T06:55:31.330Z,17.36
2022-07-28T06:58:02.997Z,17.43
2022-07-28T07:00:29.633Z,17.49
2022-07-28T07:02:56.205Z,17.50
2022-07-28T07:05:22.858Z,17.55
2022-07-28T07:07:49.341Z,17.63
2022-07-28T07:10:15.849Z,17.65
2022-07-28T07:12:42.292Z,17.73
2022-07-28T07:15:09.378Z,17.80
2022-07-28T07:17:37.512Z,17.79
2022-07-28T07:20:06.125Z,17.87
2022-07-28T07:22:32.627Z,17.91
2022-07-28T07:25:07.770Z,17.99
2022-07-28T07:27:34.217Z,18.02
2022-07-28T07:30:00.657Z,17.97
2022-07-28T07:32:27.151Z,18.05
2022-07-28T07:34:53.601Z,18.12
2022-07-28T07:37:21.204Z,18.19
2022-07-28T07:39:47.795Z,18.30
2022-07-28T07:42:14.290Z,18.34
2022-07-28T07:44:40.726Z,18.42
2022-07-28T07:47:16.455Z,18.52
2022-07-28T07:49:46.047Z,18.61
2022-07-28T07:52:13.547Z,18.63
2022-07-28T07:54:40.249Z,18.68
2022-07-28T07:57:06.704Z,18.70
2022-07-28T07:59:33.159Z,18.80
2022-07-28T08:02:00.170Z,18.89
2022-07-28T08:04:26.872Z,18.95
2022-07-28T08:06:55.392Z,18.99
2022-07-28T08:09:22.650Z,19.00
2022-07-28T08:11:49.103Z,19.08
2022-07-28T08:14:15.930Z,19.17
2022-07-28T08:16:42.743Z,19.22
2022-07-28T08:19:09.255Z,19.30
2022-07-28T08:21:38.128Z,19.37
2022-07-28T08:24:04.880Z,19.40
2022-07-28T08:26:31.412Z,19.47
2022-07-28T08:28:57.878Z,19.48
2022-07-28T08:31:24.392Z,19.44
2022-07-28T08:33:53.644Z,19.51
2022-07-28T08:36:21.356Z,19.55
2022-07-28T08:38:47.805Z,19.50
2022-07-28T08:41:20.691Z,19.46
2022-07-28T08:43:47.748Z,19.50
2022-07-28T08:46:14.896Z,19.57
2022-07-28T08:48:43.634Z,19.57
2022-07-28T08:51:11.701Z,19.59
2022-07-28T08:53:39.509Z,19.67
2022-07-28T08:56:08.364Z,19.68
2022-07-28T08:58:37.030Z,19.70
2022-07-28T09:01:04.726Z,19.77
2022-07-28T09:03:31.327Z,19.79
2022-07-28T09:05:58.087Z,19.73
2022-07-28T09:08:24.830Z,19.81
2022-07-28T09:10:51.526Z,19.90
2022-07-28T09:13:18.326Z,19.99
2022-07-28T09:15:48.732Z,19.87
2022-07-28T09:18:16.686Z,19.96
2022-07-28T09:20:43.997Z,20.01
2022-07-28T09:23:42.048Z,20.08
2022-07-28T09:26:11.384Z,20.03
2022-07-28T09:28:55.070Z,20.04
2022-07-28T09:31:22.891Z,20.15
2022-07-28T09:34:00.939Z,20.23
2022-07-28T09:36:29.086Z,20.28
2022-07-28T09:38:56.751Z,20.29
2022-07-28T09:41:23.494Z,20.39
2022-07-28T09:43:54.752Z,20.43
2022-07-28T09:46:23.909Z,20.48
2022-07-28T09:48:52.409Z,20.48
2022-07-28T09:51:39.321Z,20.51
2022-07-28T09:54:08.893Z,20.52
2022-07-28T09:56:35.437Z,20.63
2022-07-28T09:59:03.518Z,20.68
2022-07-28T10:01:35.175Z,20.74
2022-07-28T10:04:03.808Z,20.82
2022-07-28T10:06:32.109Z,20.88
2022-07-28T10:09:00.671Z,20.87
2022-07-28T10:11:28.677Z,20.87
2022-07-28T10:13:56.192Z,20.89
2022-07-28T10:16:28.301Z,20.91
2022-07-28T10:18:56.732Z,20.92
2022-07-28T10:21:24.265Z,20.96
2022-07-28T10:23:52.027Z,21.02
2022-07-28T10:26:21.519Z,21.07
2022-07-28T10:28:50.355Z,21.05
2022-07-28T10:31:29.592Z,21.12
2022-07-28T10:33:58.485Z,21.16
2022-07-28T10:36:26.247Z,21.19
2022-07-28T10:38:59.945Z,21.32
2022-07-28T10:41:31.503Z,21.40
2022-07-28T10:43:57.998Z,21.43
2022-07-28T10:46:25.686Z,21.46
2022-07-28T10:48:52.806Z,21.52
2022-07-28T10:51:21.257Z,21.53
2022-07-28T10:53:54.554Z,21.61
2022-07-28T10:56:38.820Z,21.65
2022-07-28T10:59:14.533Z,21.67
2022-07-28T11:01:50.150Z,21.76
2022-07-28T11:04:46.053Z,21.82
2022-07-28T11:07:20.619Z,21.71
2022-07-28T11:09:49.928Z,21.84
2022-07-28T11:12:16.749Z,21.88
2022-07-28T11:14:43.743Z,21.91
2022-07-28T11:17:13.420Z,21.98
2022-07-28T11:22:33.885Z,21.92
2022-07-28T11:25:18.666Z,21.97
2022-07-28T11:27:51.147Z,22.01
2022-07-28T11:30:36.464Z,21.98
2022-07-28T11:33:04.747Z,22.07
2022-07-28T11:35:41.142Z,22.18
2022-07-28T11:38:09.379Z,22.26
2022-07-28T11:40:40.130Z,22.24
2022-07-28T11:43:35.415Z,22.34
2022-07-28T11:46:10.253Z,22.38
2022-07-28T11:48:39.454Z,22.49
2022-07-28T11:51:05.940Z,22.51
2022-07-28T11:53:36.775Z,22.52
2022-07-28T11:56:04.959Z,22.52
2022-07-28T11:58:31.386Z,22.57
2022-07-28T12:01:17.410Z,22.65
2022-07-28T12:03:50.023Z,22.57
2022-07-28T12:06:28.397Z,22.63
2022-07-28T12:09:02.247Z,22.66
2022-07-28T12:11:32.881Z,22.74
2022-07-28T12:14:06.286Z,22.80
2022-07-28T12:16:35.008Z,22.89
2022-07-28T12:19:01.985Z,22.99
2022-07-28T12:21:49.096Z,23.00
2022-07-28T12:24:18.816Z,23.10
2022-07-28T12:26:49.143Z,23.19
2022-07-28T12:29:16.806Z,23.28
2022-07-28T12:31:59.007Z,23.28
2022-07-28T12:34:28.711Z,23.32
2022-07-28T12:36:59.357Z,23.41
2022-07-28T12:39:26.048Z,23.46
2022-07-28T12:42:04.307Z,23.49
2022-07-28T12:44:35.654Z,23.56
2022-07-28T12:47:02.790Z,23.61
2022-07-28T12:49:29.289Z,23.68
2022-07-28T12:51:55.878Z,23.82
2022-07-28T12:54:34.849Z,23.88
2022-07-28T12:57:01.314Z,23.94
2022-07-28T12:59:32.419Z,24.00
2022-07-28T13:01:59.047Z,24.09
2022-07-28T13:04:42.599Z,24.18
2022-07-28T13:07:22.037Z,24.17
2022-07-28T13:10:12.458Z,24.19
2022-07-28T13:12:39.287Z,24.16
2022-07-28T13:15:14.977Z,24.19
2022-07-28T13:17:49.675Z,24.18
2022-07-28T13:20:16.175Z,24.11
2022-07-28T13:22:45.526Z,24.14
2022-07-28T13:25:12.326Z,24.16
2022-07-28T13:27:38.978Z,24.14
2022-07-28T13:30:06.174Z,24.13
2022-07-28T13:32:33.969Z,24.15
2022-07-28T13:35:00.774Z,24.16
2022-07-28T13:37:29.494Z,24.26
2022-07-28T13:39:55.985Z,24.27
2022-07-28T13:42:23.600Z,24.30
2022-07-28T13:44:50.498Z,24.31
2022-07-28T13:47:17.805Z,24.40
2022-07-28T13:49:44.241Z,24.31
2022-07-28T13:52:17.066Z,24.37
2022-07-28T13:54:55.993Z,24.33
2022-07-28T13:57:22.447Z,24.36
2022-07-28T13:59:49.004Z,24.37
2022-07-28T14:02:16.341Z,24.40
2022-07-28T14:04:45.859Z,24.39
2022-07-28T14:07:20.651Z,24.43
2022-07-28T14:09:47.839Z,24.49
2022-07-28T14:12:14.331Z,24.52
2022-07-28T14:14:40.783Z,24.43
2022-07-28T14:17:42.852Z,24.51
2022-07-28T14:20:01.171Z,24.47
2022-07-28T14:22:27.758Z,24.49
2022-07-28T14:24:54.196Z,24.62
2022-07-28T14:27:22.048Z,24.65
2022-07-28T14:29:51.147Z,24.64
2022-07-28T14:32:17.568Z,24.69
2022-07-28T14:34:44.014Z,24.73
2022-07-28T14:37:11.382Z,24.82
2022-07-28T14:39:38.268Z,24.88
2022-07-28T14:42:05.761Z,24.82
2022-07-28T14:44:32.687Z,24.79
2022-07-28T14:46:59.224Z,24.89
2022-07-28T14:49:25.830Z,24.95
2022-07-28T14:51:52.577Z,24.97
2022-07-28T14:54:19.537Z,25.01
2022-07-28T14:56:46.152Z,25.00
2022-07-28T14:59:12.635Z,24.99
2022-07-28T15:01:39.138Z,25.04
2022-07-28T15:04:05.777Z,25.07
2022-07-28T15:06:32.214Z,25.14
2022-07-28T15:08:58.707Z,25.24
2022-07-28T15:11:25.892Z,25.28
2022-07-28T15:13:52.344Z,25.20
2022-07-28T15:16:18.907Z,25.18
2022-07-28T15:18:45.390Z,25.25
2022-07-28T15:21:18.043Z,25.28
2022-07-28T15:23:44.712Z,25.38
2022-07-28T15:26:11.393Z,25.36
2022-07-28T15:28:38.326Z,25.44
2022-07-28T15:31:06.728Z,25.60
2022-07-28T15:33:38.927Z,25.62
2022-07-28T15:36:14.391Z,25.79
2022-07-28T15:38:40.846Z,25.84
2022-07-28T15:41:07.467Z,25.87
2022-07-28T15:43:33.943Z,26.01
2022-07-28T15:46:03.715Z,26.05
2022-07-28T15:48:30.251Z,26.16
2022-07-28T15:50:57.645Z,26.21
2022-07-28T15:53:24.085Z,26.25
2022-07-28T15:55:51.888Z,26.26
2022-07-28T15:58:19.417Z,26.38
2022-07-28T16:00:46.073Z,26.44
2022-07-28T16:03:12.885Z,26.44
2022-07-28T16:05:39.626Z,26.56
2022-07-28T16:08:06.151Z,26.60
2022-07-28T16:10:32.619Z,26.61
2022-07-28T16:12:59.042Z,26.65
2022-07-28T16:15:26.923Z,26.75
2022-07-28T16:17:54.279Z,26.88
2022-07-28T16:20:20.766Z,27.00
2022-07-28T16:22:47.234Z,27.36
2022-07-28T16:25:16.904Z,27.46
2022-07-28T16:27:44.561Z,27.67
2022-07-28T16:30:11.651Z,27.84
2022-07-28T16:32:38.821Z,28.11
2022-07-28T16:35:06.632Z,29.07
2022-07-28T16:37:33.723Z,29.89
2022-07-28T16:40:00.203Z,31.25
2022-07-28T16:42:26.660Z,31.84
2022-07-28T16:44:53.103Z,32.77
2022-07-28T16:47:19.559Z,33.34
2022-07-28T16:49:46.488Z,33.80
2022-07-28T16:52:13.869Z,33.77
2022-07-28T16:54:40.333Z,33.61
2022-07-28T16:57:07.296Z,33.35
2022-07-28T16:59:37.592Z,33.98
2022-07-28T17:02:14.460Z,34.05
2022-07-28T17:04:40.942Z,34.23
2022-07-28T17:07:08.226Z,34.18
2022-07-28T17:09:34.680Z,33.60
2022-07-28T17:12:01.118Z,33.20
2022-07-28T17:14:27.564Z,32.57
2022-07-28T17:16:53.993Z,32.28
2022-07-28T17:19:21.974Z,31.99
2022-07-28T17:21:48.594Z,31.96
2022-07-28T17:24:15.406Z,32.00
2022-07-28T17:29:28.696Z,31.60
2022-07-28T17:31:55.251Z,31.19
2022-07-28T17:34:21.670Z,30.67
2022-07-28T17:36:48.188Z,30.27
2022-07-28T17:39:14.810Z,29.98
2022-07-28T17:41:41.649Z,29.68
2022-07-28T17:44:08.112Z,29.30
2022-07-28T17:46:37.874Z,29.04
2022-07-28T17:49:05.643Z,28.71
2022-07-28T17:51:32.298Z,28.56
2022-07-28T17:53:58.821Z,28.28
2022-07-28T17:56:25.582Z,28.16
2022-07-28T17:58:52.297Z,28.01
2022-07-28T18:01:18.815Z,27.83
2022-07-28T18:03:58.692Z,27.67
2022-07-28T18:06:28.330Z,27.54
2022-07-28T18:08:54.778Z,27.40
2022-07-28T18:11:21.278Z,27.23
2022-07-28T18:14:04.280Z,27.14
2022-07-28T18:16:33.976Z,26.99
2022-07-28T18:19:00.520Z,26.88
2022-07-28T18:21:27.003Z,26.71
2022-07-28T18:23:54.842Z,26.59
2022-07-28T18:26:22.062Z,26.37
2022-07-28T18:28:48.748Z,26.37
2022-07-28T18:31:15.249Z,26.22
2022-07-28T18:33:41.756Z,26.13
2022-07-28T18:36:08.224Z,26.05
2022-07-28T18:38:34.653Z,25.99
2022-07-28T18:41:01.164Z,25.91
2022-07-28T18:43:28.578Z,25.84
2022-07-28T18:45:55.111Z,25.74
2022-07-28T18:48:21.607Z,25.63
2022-07-28T18:50:48.065Z,25.50
2022-07-28T18:53:14.513Z,25.41
2022-07-28T18:55:41.008Z,25.35
2022-07-28T18:58:07.496Z,25.27
2022-07-28T19:00:33.951Z,25.18
2022-07-28T19:03:01.435Z,25.09
2022-07-28T19:05:27.991Z,24.95
2022-07-28T19:08:03.757Z,24.90
2022-07-28T19:10:30.253Z,24.82
2022-07-28T19:12:58.151Z,24.75
2022-07-28T19:15:24.666Z,24.66
2022-07-28T19:18:09.971Z,24.60
2022-07-28T19:20:39.086Z,24.51
2022-07-28T19:23:06.021Z,24.44
2022-07-28T19:25:32.752Z,24.34
2022-07-28T19:27:59.189Z,24.20
2022-07-28T19:30:25.639Z,24.17
2022-07-28T19:32:52.086Z,24.10
2022-07-28T19:35:19.071Z,23.97
2022-07-28T19:37:45.562Z,23.91
2022-07-28T19:40:12.139Z,23.84
2022-07-28T19:42:38.668Z,23.81
2022-07-28T19:45:06.148Z,23.62
2022-07-28T19:47:32.651Z,23.61
2022-07-28T19:50:04.878Z,23.55
2022-07-28T19:52:31.357Z,23.53
2022-07-28T19:54:57.838Z,23.48
2022-07-28T19:57:24.835Z,23.47
2022-07-28T19:59:51.296Z,23.44
2022-07-28T20:02:17.824Z,23.41
2022-07-28T20:04:44.400Z,23.32
2022-07-28T20:07:10.885Z,23.28
2022-07-28T20:09:37.371Z,23.20
2022-07-28T20:12:04.023Z,23.14
2022-07-28T20:14:34.187Z,23.10
2022-07-28T20:17:00.754Z,23.03
2022-07-28T20:19:27.244Z,23.00
2022-07-28T20:21:53.718Z,22.97
2022-07-28T20:24:20.984Z,22.93
2022-07-28T20:26:47.422Z,22.88
2022-07-28T20:29:13.859Z,22.86
2022-07-28T20:31:40.320Z,22.81
2022-07-28T20:34:06.993Z,22.72
2022-07-28T20:36:34.426Z,22.68
2022-07-28T20:39:00.945Z,22.65
2022-07-28T20:41:27.373Z,22.61
2022-07-28T20:44:18.560Z,22.59
2022-07-28T20:46:40.660Z,22.52
2022-07-28T20:49:07.192Z,22.49
2022-07-28T20:51:33.658Z,22.47
2022-07-28T20:54:00.127Z,22.42
2022-07-28T20:56:26.588Z,22.37
2022-07-28T20:58:53.049Z,22.31
2022-07-28T21:01:23.297Z,22.26
2022-07-28T21:03:49.874Z,22.20
2022-07-28T21:06:16.302Z,22.12
2022-07-28T21:08:44.749Z,22.07
2022-07-28T21:11:11.713Z,22.04
2022-07-28T21:13:38.156Z,21.99
2022-07-28T21:16:04.806Z,21.93
2022-07-28T21:18:31.241Z,21.91
2022-07-28T21:20:59.532Z,21.87
2022-07-28T21:23:25.977Z,21.83
2022-07-28T21:25:52.521Z,21.78
2022-07-28T21:28:37.632Z,21.70
2022-07-28T21:31:04.084Z,21.67
2022-07-28T21:33:30.675Z,21.64
2022-07-28T21:35:57.279Z,21.62
2022-07-28T21:38:24.720Z,21.56
2022-07-28T21:40:51.172Z,21.54
2022-07-28T21:43:17.626Z,21.52
2022-07-28T21:45:45.518Z,21.50
2022-07-28T21:48:12.633Z,21.46
2022-07-28T21:50:39.133Z,21.44
2022-07-28T21:53:05.571Z,21.42
2022-07-28T21:55:32.302Z,21.40
2022-07-28T21:57:58.731Z,21.37
2022-07-28T22:00:25.382Z,21.35
2022-07-28T22:02:51.862Z,21.33
2022-07-28T22:05:18.696Z,21.31
2022-07-28T22:07:45.214Z,21.29
2022-07-28T22:10:11.761Z,21.26
2022-07-28T22:12:39.211Z,21.24
2022-07-28T22:15:06.206Z,21.22
2022-07-28T22:17:32.652Z,21.21
2022-07-28T22:19:59.082Z,21.15
2022-07-28T22:22:25.522Z,21.12
2022-07-28T22:24:51.957Z,21.09
2022-07-28T22:27:18.409Z,21.07
2022-07-28T22:29:51.708Z,21.04
2022-07-28T22:32:18.922Z,21.00
2022-07-28T22:34:55.764Z,20.97
2022-07-28T22:37:22.186Z,20.94
2022-07-28T22:39:48.629Z,20.91
2022-07-28T22:42:15.059Z,20.89
2022-07-28T22:44:41.503Z,20.85
2022-07-28T22:47:07.980Z,20.82
2022-07-28T22:49:34.434Z,20.78
2022-07-28T22:52:00.884Z,20.75
2022-07-28T22:54:27.330Z,20.70
2022-07-28T22:56:53.751Z,20.66
2022-07-28T22:59:20.206Z,20.61
2022-07-28T23:01:47.942Z,20.53
2022-07-28T23:04:14.772Z,20.49
2022-07-28T23:06:42.051Z,20.43
2022-07-28T23:09:08.520Z,20.39
2022-07-28T23:11:35.124Z,20.35
2022-07-28T23:14:01.580Z,20.30
2022-07-28T23:16:28.097Z,20.26
2022-07-28T23:18:54.761Z,20.23
2022-07-28T23:21:21.499Z,20.20
2022-07-28T23:23:47.939Z,20.17
2022-07-28T23:26:14.387Z,20.11
2022-07-28T23:28:40.867Z,20.07
2022-07-28T23:31:07.408Z,20.04
2022-07-28T23:33:55.611Z,19.99
2022-07-28T23:36:27.116Z,19.98
2022-07-28T23:38:55.854Z,19.93
2022-07-28T23:41:22.290Z,19.88
2022-07-28T23:43:48.726Z,19.83
2022-07-28T23:46:15.213Z,19.78
2022-07-28T23:48:42.456Z,19.75
2022-07-28T23:51:09.572Z,19.71
2022-07-28T23:53:37.434Z,19.68
2022-07-28T23:56:04.005Z,19.66
2022-07-28T23:58:30.455Z,19.64
